| time (UTC) | temp F | wind direction | speed MPH | gust MPH | rain 1hr in | rain 24hr in | rain mn in | humidity % | barometer mb |
| 20260509111513 | 39 | 62 | 0.0 | 2.0 | 0.00 | 0.00 | 0.00 | 85 | 1013.1 |
| 20260509110010 | 38 | 41 | 0.0 | 0.0 | 0.00 | 0.00 | 0.00 | 87 | 1013.0 |
| 20260509104510 | 37 | 44 | 0.0 | 3.0 | 0.00 | 0.00 | 0.00 | 86 | 1012.9 |
| 20260509103003 | 36 | 308 | 0.0 | 0.0 | 0.00 | 0.00 | 0.00 | 88 | 1012.9 |
| 20260509101502 | 35 | 8 | 0.0 | 1.0 | 0.00 | 0.00 | 0.00 | 88 | 1012.4 |
| 20260509100057 | 35 | 44 | 0.0 | 1.0 | 0.00 | 0.00 | 0.00 | 88 | 1012.6 |
| 20260509094605 | 34 | 88 | 0.0 | 1.0 | 0.00 | 0.00 | 0.00 | 88 | 1012.7 |
| 20260509093054 | 34 | 91 | 0.0 | 0.0 | 0.00 | 0.00 | 0.00 | 89 | 1012.9 |
| 20260509091556 | 33 | 76 | 0.0 | 2.0 | 0.00 | 0.00 | 0.00 | 90 | 1012.9 |
| 20260509090100 | 32 | 49 | 0.0 | 2.0 | 0.00 | 0.00 | 0.00 | 90 | 1012.9 |
| 20260509084554 | 32 | 57 | 0.0 | 1.0 | 0.00 | 0.00 | 0.00 | 91 | 1013.1 |
| 20260509083056 | 31 | 61 | 0.0 | 1.0 | 0.00 | 0.00 | 0.00 | 91 | 1013.1 |
| 20260509081546 | 31 | 57 | 0.0 | 2.0 | 0.00 | 0.00 | 0.00 | 91 | 1013.0 |
| 20260509080047 | 31 | 65 | 0.0 | 1.0 | 0.00 | 0.00 | 0.00 | 90 | 1013.1 |
| 20260509074546 | 31 | 65 | 0.0 | 2.0 | 0.00 | 0.00 | 0.00 | 90 | 1013.1 |
| 20260509073040 | 32 | 68 | 0.0 | 1.0 | 0.00 | 0.00 | 0.00 | 90 | 1013.1 |
| 20260509071543 | 32 | 84 | 0.0 | 1.0 | 0.00 | 0.00 | 0.00 | 90 | 1012.9 |
| 20260509070037 | 32 | 6 | 0.0 | 1.0 | 0.00 | 0.00 | 0.00 | 89 | 1013.0 |
| 20260509064536 | 32 | 53 | 0.0 | 1.0 | 0.00 | 0.00 | 0.00 | 89 | 1013.1 |
| 20260509063034 | 32 | 37 | 0.0 | 1.0 | 0.00 | 0.00 | 0.00 | 89 | 1013.3 |
| 20260509061533 | 33 | 1 | 0.0 | 2.0 | 0.00 | 0.00 | 0.00 | 88 | 1013.3 |
| 20260509060030 | 33 | 49 | 0.0 | 3.0 | 0.00 | 0.00 | 0.00 | 88 | 1013.5 |
| 20260509054532 | 33 | 29 | 0.0 | 3.0 | 0.00 | 0.00 | 0.00 | 88 | 1013.7 |
| 20260509053038 | 33 | 58 | 0.0 | 2.0 | 0.00 | 0.00 | 0.00 | 88 | 1013.8 |
| 20260509051525 | 33 | 74 | 1.0 | 3.0 | 0.00 | 0.00 | 0.00 | 88 | 1013.9 |
| 20260509050023 | 33 | 32 | 0.0 | 2.0 | 0.00 | 0.00 | 0.00 | 87 | 1014.1 |
| 20260509044521 | 33 | 99 | 0.0 | 2.0 | 0.00 | 0.00 | 0.00 | 87 | 1014.0 |
| 20260509043017 | 34 | 63 | 0.0 | 2.0 | 0.00 | 0.00 | 0.00 | 87 | 1013.9 |
| 20260509041516 | 34 | 52 | 0.0 | 2.0 | 0.00 | 0.00 | 0.00 | 87 | 1013.8 |
| 20260509040025 | 34 | 39 | 0.0 | 3.0 | 0.00 | 0.00 | 0.00 | 87 | 1013.5 |
| 20260509034512 | 35 | 58 | 0.0 | 2.0 | 0.00 | 0.00 | 0.00 | 87 | 1013.5 |
| 20260509033011 | 35 | 96 | 0.0 | 3.0 | 0.00 | 0.00 | 0.00 | 88 | 1013.5 |
| 20260509031511 | 35 | 60 | 0.0 | 1.0 | 0.00 | 0.00 | 0.00 | 88 | 1013.5 |
| 20260509030019 | 35 | 62 | 0.0 | 1.0 | 0.00 | 0.00 | 0.00 | 87 | 1013.5 |
| 20260509024513 | 36 | 62 | 0.0 | 0.0 | 0.00 | 0.00 | 0.00 | 87 | 1013.5 |
| 20260509023009 | 36 | 28 | 0.0 | 1.0 | 0.00 | 0.00 | 0.00 | 86 | 1013.7 |
| 20260509021508 | 37 | 28 | 0.0 | 1.0 | 0.00 | 0.00 | 0.00 | 84 | 1013.6 |
| 20260509020006 | 38 | 28 | 0.0 | 1.0 | 0.00 | 0.00 | 0.00 | 82 | 1013.5 |
| 20260509014505 | 39 | 25 | 1.0 | 2.0 | 0.00 | 0.00 | 0.00 | 82 | 1013.1 |
| 20260509013003 | 39 | 16 | 0.0 | 1.0 | 0.00 | 0.00 | 0.00 | 81 | 1013.0 |
| 20260509011503 | 40 | 77 | 0.0 | 0.0 | 0.00 | 0.00 | 0.00 | 76 | 1012.8 |
| 20260509010002 | 41 | 77 | 0.0 | 0.0 | 0.00 | 0.00 | 0.00 | 75 | 1012.6 |
| 20260509004505 | 43 | 77 | 0.0 | 0.0 | 0.00 | 0.00 | 0.00 | 71 | 1012.3 |
| 20260509003002 | 44 | 77 | 0.0 | 0.0 | 0.00 | 0.00 | 0.00 | 67 | 1012.1 |
| 20260509001501 | 46 | 75 | 0.0 | 0.0 | 0.00 | 0.00 | 0.00 | 62 | 1011.9 |
| 20260509000106 | 48 | 75 | 0.0 | 1.0 | 0.00 | 0.00 | 0.00 | 57 | 1011.8 |
| 20260508234601 | 50 | 72 | 0.0 | 4.0 | 0.00 | 0.00 | 0.00 | 52 | 1011.8 |
| 20260508233058 | 53 | 238 | 0.0 | 2.0 | 0.00 | 0.00 | 0.00 | 49 | 1011.7 |
| 20260508231558 | 53 | 283 | 2.0 | 5.0 | 0.00 | 0.00 | 0.00 | 48 | 1011.7 |
| 20260508230057 | 54 | 274 | 0.0 | 5.0 | 0.00 | 0.00 | 0.00 | 49 | 1011.8 |
| 20260508224635 | 53 | 271 | 2.0 | 5.0 | 0.00 | 0.00 | 0.00 | 49 | 1011.7 |
| 20260508223057 | 53 | 158 | 1.0 | 11.0 | 0.00 | 0.00 | 0.00 | 49 | 1011.7 |
| 20260508221557 | 53 | 18 | 1.0 | 6.0 | 0.00 | 0.00 | 0.00 | 48 | 1011.5 |
| 20260508220057 | 54 | 285 | 3.0 | 9.0 | 0.00 | 0.00 | 0.00 | 46 | 1011.5 |
| 20260508214559 | 53 | 247 | 3.0 | 11.0 | 0.00 | 0.00 | 0.00 | 46 | 1011.5 |
| 20260508213056 | 53 | 318 | 2.0 | 10.0 | 0.00 | 0.00 | 0.00 | 49 | 1011.6 |
| 20260508211555 | 54 | 340 | 4.0 | 8.0 | 0.00 | 0.00 | 0.00 | 48 | 1011.6 |
| 20260508210054 | 53 | 259 | 4.0 | 12.0 | 0.00 | 0.00 | 0.00 | 50 | 1011.5 |
| 20260508204552 | 54 | 323 | 2.0 | 9.0 | 0.00 | 0.00 | 0.00 | 50 | 1011.5 |
| 20260508203058 | 53 | 264 | 4.0 | 11.0 | 0.00 | 0.00 | 0.00 | 51 | 1011.7 |
| 20260508201554 | 52 | 328 | 4.0 | 10.0 | 0.00 | 0.00 | 0.00 | 52 | 1011.7 |
| 20260508200048 | 50 | 342 | 5.0 | 11.0 | 0.00 | 0.00 | 0.00 | 56 | 1011.7 |
| 20260508194546 | 51 | 345 | 1.0 | 9.0 | 0.00 | 0.00 | 0.00 | 57 | 1011.7 |
| 20260508193045 | 51 | 315 | 1.0 | 8.0 | 0.00 | 0.00 | 0.00 | 56 | 1011.5 |
| 20260508191549 | 52 | 250 | 2.0 | 10.0 | 0.00 | 0.00 | 0.00 | 57 | 1011.8 |
| 20260508190046 | 52 | 311 | 2.0 | 10.0 | 0.00 | 0.00 | 0.00 | 57 | 1011.7 |
| 20260508184546 | 52 | 295 | 3.0 | 10.0 | 0.00 | 0.00 | 0.00 | 56 | 1011.8 |
| 20260508183044 | 51 | 278 | 4.0 | 15.0 | 0.00 | 0.00 | 0.00 | 62 | 1012.0 |
| 20260508181542 | 49 | 306 | 0.0 | 9.0 | 0.00 | 0.00 | 0.00 | 63 | 1012.1 |
| 20260508180040 | 50 | 89 | 3.0 | 8.0 | 0.00 | 0.00 | 0.00 | 64 | 1012.1 |
| 20260508174538 | 49 | 68 | 4.0 | 9.0 | 0.00 | 0.00 | 0.00 | 65 | 1012.0 |
| 20260508173038 | 49 | 191 | 1.0 | 8.0 | 0.00 | 0.00 | 0.00 | 72 | 1012.2 |
| 20260508171536 | 47 | 255 | 3.0 | 8.0 | 0.00 | 0.00 | 0.00 | 75 | 1012.5 |
| 20260508170036 | 45 | 247 | 1.0 | 7.0 | 0.00 | 0.00 | 0.00 | 82 | 1012.6 |
| 20260508164536 | 46 | 108 | 3.0 | 12.0 | 0.00 | 0.00 | 0.00 | 80 | 1012.8 |
| 20260508163036 | 48 | 260 | 3.0 | 8.0 | 0.00 | 0.00 | 0.00 | 68 | 1012.6 |
| 20260508161532 | 49 | 321 | 3.0 | 9.0 | 0.00 | 0.00 | 0.00 | 56 | 1012.4 |
| 20260508160032 | 50 | 349 | 2.0 | 8.0 | 0.00 | 0.00 | 0.00 | 58 | 1012.3 |
| 20260508154531 | 50 | 240 | 2.0 | 9.0 | 0.00 | 0.00 | 0.00 | 56 | 1012.3 |
| 20260508153037 | 49 | 291 | 2.0 | 12.0 | 0.00 | 0.00 | 0.00 | 60 | 1012.2 |
| 20260508151526 | 49 | 281 | 2.0 | 8.0 | 0.00 | 0.00 | 0.00 | 60 | 1012.3 |
| 20260508150047 | 48 | 219 | 2.0 | 6.0 | 0.00 | 0.00 | 0.00 | 63 | 1012.3 |
| 20260508144526 | 47 | 224 | 3.0 | 8.0 | 0.00 | 0.00 | 0.00 | 65 | 1012.3 |
| 20260508143024 | 48 | 236 | 1.0 | 6.0 | 0.00 | 0.00 | 0.00 | 62 | 1012.2 |
| 20260508141529 | 48 | 159 | 1.0 | 5.0 | 0.00 | 0.00 | 0.00 | 62 | 1012.1 |
| 20260508140027 | 49 | 214 | 2.0 | 7.0 | 0.00 | 0.00 | 0.00 | 62 | 1012.1 |
| 20260508134520 | 47 | 203 | 1.0 | 8.0 | 0.00 | 0.00 | 0.00 | 64 | 1012.0 |
| 20260508133018 | 47 | 245 | 2.0 | 5.0 | 0.00 | 0.00 | 0.00 | 70 | 1012.0 |
| 20260508131514 | 45 | 288 | 2.0 | 5.0 | 0.00 | 0.00 | 0.00 | 70 | 1012.4 |
| 20260508130011 | 44 | 239 | 1.0 | 7.0 | 0.00 | 0.00 | 0.00 | 75 | 1012.3 |
| 20260508124508 | 43 | 110 | 1.0 | 4.0 | 0.00 | 0.00 | 0.00 | 78 | 1012.4 |
| 20260508123005 | 42 | 324 | 3.0 | 7.0 | 0.00 | 0.00 | 0.00 | 79 | 1012.6 |
| 20260508121503 | 42 | 345 | 1.0 | 6.0 | 0.00 | 0.00 | 0.00 | 82 | 1012.8 |
| 20260508120105 | 41 | 44 | 0.0 | 6.0 | 0.00 | 0.00 | 0.00 | 84 | 1012.8 |
| 20260508114557 | 40 | 264 | 0.0 | 1.0 | 0.00 | 0.00 | 0.00 | 87 | 1012.7 |
| 20260508113057 | 40 | 20 | 0.0 | 1.0 | 0.00 | 0.00 | 0.00 | 87 | 1012.7 |